Gervais, Oregon
Current Conditions -  °F | °C
As of 8:53 AM on Monday 22 Dec 2014 (Local Time) from KUAO Reporting Station
Overcast Overcast  
Wind Chill: 10°   Ceiling: 600
Heat Index: 10°   Visibility: 10mi
Dew Point:   Wind: 0mph
Humidity: 96%   Direction: NA
Pressure: 30.38"   Gusts: NA
Location:  45.11°N, 122.9°W
Report Text: KUAO 221653Z AUTO 00000KT 10SM OVC006 10/09 A3038 RMK AO2 CIG 005V009 SLP288 T01000094
Loading
Personal Weather Stations






























Interactive Weather Map New forecast layout! Learn more

10-Day Weather Forecast

Advertisements
Track Severe Weather on mobile